Time;durP1;ratioP1;P1;durP2;ratioP2;P2;SDS_P1;SDS_P2;PMS_P1;PMS_P2;Temp;Humidity;BMP_temperature;BMP_pressure;BME280_temperature;BME280_humidity;BME280_pressure;Samples;Min_cycle;Max_cycle;Signal;HPM_P1;HPM_P2
2022/07/13 00:01:31;;;;;;;8.48;3.60;;;;;;;17.15;56.01;100361.34;5088242;28;20028;-27
2022/07/13 00:03:57;;;;;;;7.32;3.15;;;;;;;16.98;57.38;100363.31;5070622;28;20028;-29
2022/07/13 00:06:23;;;;;;;10.40;4.60;;;;;;;17.18;55.63;100355.47;5070388;28;20127;-29
2022/07/13 00:08:48;;;;;;;9.45;4.50;;;;;;;17.18;56.12;100360.84;5088456;28;20486;-26
2022/07/13 00:11:14;;;;;;;9.82;4.70;;;;;;;17.03;56.32;100347.22;5088546;28;20035;-27
2022/07/13 00:13:39;;;;;;;8.93;3.47;;;;;;;16.84;56.53;100360.22;5087976;28;20851;-27
2022/07/13 00:16:05;;;;;;;8.48;3.70;;;;;;;16.31;58.46;100348.28;5088251;28;20849;-27
2022/07/13 00:18:30;;;;;;;8.60;3.72;;;;;;;16.31;59.15;100356.34;5070140;28;20024;-27
2022/07/13 00:20:57;;;;;;;6.00;2.95;;;;;;;16.30;59.03;100350.13;5088373;28;20032;-26
2022/07/13 00:23:23;;;;;;;5.68;2.85;;;;;;;16.60;58.76;100359.66;5088144;28;20043;-28
2022/07/13 00:25:48;;;;;;;7.03;3.67;;;;;;;16.68;57.87;100338.47;5069809;28;20432;-26
2022/07/13 00:28:14;;;;;;;6.70;3.22;;;;;;;16.52;58.13;100349.31;5088075;28;20035;-26
2022/07/13 00:30:39;;;;;;;6.57;3.00;;;;;;;16.66;57.98;100354.06;5069532;28;20032;-28
2022/07/13 00:33:05;;;;;;;8.15;3.45;;;;;;;16.72;57.69;100346.88;5087948;28;20032;-28
2022/07/13 00:35:31;;;;;;;6.25;3.15;;;;;;;16.92;56.72;100367.03;5069280;28;20028;-29
2022/07/13 00:37:56;;;;;;;6.22;3.28;;;;;;;16.84;57.31;100352.16;5088350;28;20479;-27
2022/07/13 00:40:22;;;;;;;7.65;3.13;;;;;;;17.01;57.01;100369.00;5087981;28;20107;-27
2022/07/13 00:42:48;;;;;;;4.82;3.00;;;;;;;17.05;57.23;100369.31;5069695;28;20047;-27
2022/07/13 00:45:13;;;;;;;4.85;3.00;;;;;;;16.70;57.45;100337.44;5086962;28;20628;-34
2022/07/13 00:47:39;;;;;;;13.70;4.90;;;;;;;16.89;56.88;100364.84;5087602;28;20043;-27
2022/07/13 00:50:07;;;;;;;9.13;5.03;;;;;;;16.70;58.14;100349.00;5069255;28;20499;-26
2022/07/13 00:52:35;;;;;;;11.15;5.32;;;;;;;16.78;58.02;100350.44;5087345;28;20487;-27
2022/07/13 00:55:01;;;;;;;7.07;2.92;;;;;;;16.69;57.93;100344.66;5069339;28;20039;-26
2022/07/13 00:57:28;;;;;;;5.25;3.15;;;;;;;16.64;58.27;100344.63;5068843;28;20028;-28
2022/07/13 00:59:54;;;;;;;5.05;2.92;;;;;;;16.41;59.38;100362.66;5068838;28;20032;-27
2022/07/13 01:02:20;;;;;;;6.20;3.03;;;;;;;16.37;59.51;100347.28;5069025;28;20114;-29
2022/07/13 01:04:45;;;;;;;5.13;3.05;;;;;;;16.50;59.19;100354.16;5087657;28;20480;-29
2022/07/13 01:07:11;;;;;;;4.95;2.95;;;;;;;15.99;60.90;100355.09;5087522;28;20028;-30
2022/07/13 01:09:36;;;;;;;5.32;2.97;;;;;;;16.19;60.25;100359.97;5087022;28;20035;-28
2022/07/13 01:12:03;;;;;;;6.35;4.05;;;;;;;15.85;61.58;100357.34;5087314;28;20036;-26
2022/07/13 01:14:29;;;;;;;5.97;2.80;;;;;;;15.83;61.46;100346.03;5068498;28;20038;-27
2022/07/13 01:16:55;;;;;;;4.88;2.78;;;;;;;15.55;62.63;100365.72;5068983;28;20114;-28
2022/07/13 01:19:22;;;;;;;6.72;2.42;;;;;;;15.11;63.78;100364.69;5086986;28;20158;-28
2022/07/13 01:21:51;;;;;;;4.50;2.58;;;;;;;15.07;64.23;100359.78;5068715;28;20028;-27
2022/07/13 01:24:17;;;;;;;4.40;2.90;;;;;;;15.08;64.56;100360.63;5068531;28;20177;-28
2022/07/13 01:26:42;;;;;;;4.78;2.70;;;;;;;15.30;63.12;100346.47;5086789;28;20114;-27
2022/07/13 01:29:08;;;;;;;3.67;2.63;;;;;;;14.84;65.12;100344.63;5086726;28;20020;-28
2022/07/13 01:31:35;;;;;;;5.60;2.78;;;;;;;15.19;64.92;100357.06;5067979;28;20036;-29
2022/07/13 01:34:01;;;;;;;5.20;2.93;;;;;;;15.52;62.98;100341.19;5068589;28;20050;-27
2022/07/13 01:36:27;;;;;;;5.55;3.00;;;;;;;15.76;62.82;100366.06;5087001;28;20480;-28
2022/07/13 01:38:53;;;;;;;4.57;3.15;;;;;;;15.62;63.11;100352.09;5068745;28;20317;-29
2022/07/13 01:41:19;;;;;;;5.40;2.50;;;;;;;15.33;63.95;100346.00;5086413;28;20055;-32
2022/07/13 01:43:46;;;;;;;7.07;3.10;;;;;;;15.51;62.76;100337.69;5087145;28;20032;-26
2022/07/13 01:46:12;;;;;;;4.35;2.58;;;;;;;15.71;61.54;100341.75;5087021;28;20032;-27
2022/07/13 01:48:38;;;;;;;4.60;3.58;;;;;;;15.71;62.05;100352.50;5086922;28;20035;-27
2022/07/13 01:51:04;;;;;;;3.85;2.60;;;;;;;15.84;61.52;100326.13;5068359;28;20052;-27
2022/07/13 01:53:29;;;;;;;5.18;3.22;;;;;;;15.44;62.49;100327.09;5068109;28;20063;-27
2022/07/13 01:55:55;;;;;;;6.20;2.92;;;;;;;15.87;61.40;100346.31;5068209;28;20028;-27
2022/07/13 01:58:20;;;;;;;4.88;2.72;;;;;;;15.79;61.11;100323.38;5086521;28;20031;-29
2022/07/13 02:00:46;;;;;;;5.18;2.95;;;;;;;15.58;61.86;100353.66;5086751;28;20030;-29
2022/07/13 02:03:11;;;;;;;4.50;2.50;;;;;;;15.70;62.30;100340.13;5086527;28;20028;-28
2022/07/13 02:05:37;;;;;;;6.63;2.90;;;;;;;15.59;62.66;100348.03;5068101;28;20028;-27
2022/07/13 02:08:04;;;;;;;4.80;2.78;;;;;;;15.29;62.88;100328.75;5068283;28;20032;-27
2022/07/13 02:10:35;;;;;;;5.18;3.05;;;;;;;15.33;62.85;100329.88;5086330;28;20484;-30
2022/07/13 02:13:07;;;;;;;6.88;3.35;;;;;;;15.20;63.45;100353.31;5086554;28;20056;-27
2022/07/13 02:15:34;;;;;;;9.50;3.50;;;;;;;14.99;64.55;100351.31;5068119;28;20097;-29
2022/07/13 02:18:00;;;;;;;7.25;3.42;;;;;;;15.01;64.02;100351.88;5068241;28;20032;-26
2022/07/13 02:20:25;;;;;;;7.60;3.47;;;;;;;14.61;66.23;100339.34;5068267;28;20427;-27
2022/07/13 02:22:51;;;;;;;9.25;3.80;;;;;;;14.37;66.95;100331.31;5086348;28;20170;-27
2022/07/13 02:25:16;;;;;;;6.65;3.88;;;;;;;14.07;66.95;100334.19;5086304;28;20028;-27
2022/07/13 02:27:42;;;;;;;7.65;3.42;;;;;;;14.20;67.38;100339.28;5085956;28;20063;-26
2022/07/13 02:30:11;;;;;;;7.57;3.60;;;;;;;14.56;66.57;100352.66;5086250;28;20039;-28
2022/07/13 02:32:37;;;;;;;6.30;3.78;;;;;;;14.74;65.83;100338.25;5068048;28;20036;-28
2022/07/13 02:35:03;;;;;;;4.60;3.20;;;;;;;14.74;65.82;100348.97;5067838;28;20039;-28
2022/07/13 02:37:29;;;;;;;5.88;3.47;;;;;;;14.46;66.56;100339.81;5067673;28;20427;-32
2022/07/13 02:39:56;;;;;;;5.15;3.42;;;;;;;14.79;65.95;100352.59;5086013;28;20032;-26
2022/07/13 02:42:25;;;;;;;7.47;3.85;;;;;;;14.63;65.34;100324.63;5067958;28;20048;-26
2022/07/13 02:44:53;;;;;;;10.90;3.72;;;;;;;14.90;65.01;100347.41;5071110;28;20142;-26
2022/07/13 02:47:19;;;;;;;5.53;3.15;;;;;;;14.64;65.42;100325.44;5071456;28;20074;-29
2022/07/13 02:49:45;;;;;;;5.68;3.47;;;;;;;14.76;65.46;100350.38;5071521;28;20051;-27
2022/07/13 02:52:10;;;;;;;6.28;3.35;;;;;;;14.84;64.76;100349.97;5071069;28;20051;-29
2022/07/13 02:54:36;;;;;;;7.30;3.35;;;;;;;14.92;64.52;100346.09;5071615;28;20568;-26
2022/07/13 02:57:02;;;;;;;6.78;3.42;;;;;;;14.83;65.02;100358.25;5089617;28;20032;-27
2022/07/13 02:59:32;;;;;;;10.30;3.88;;;;;;;14.86;63.94;100369.34;5089492;28;20407;-27
2022/07/13 03:01:58;;;;;;;8.57;3.15;;;;;;;15.07;62.77;100358.97;5071271;28;20107;-27
2022/07/13 03:04:24;;;;;;;5.18;3.08;;;;;;;14.58;63.65;100348.66;5089776;28;20555;-28
2022/07/13 03:06:49;;;;;;;4.68;3.00;;;;;;;14.75;63.53;100361.34;5089316;28;20032;-28
2022/07/13 03:09:14;;;;;;;7.65;2.88;;;;;;;14.77;63.22;100357.38;5090233;28;20033;-27
2022/07/13 03:11:40;;;;;;;6.18;3.30;;;;;;;14.39;64.25;100347.19;5089237;28;20036;-27
2022/07/13 03:14:05;;;;;;;6.45;3.20;;;;;;;14.70;62.56;100345.94;5071252;28;20020;-30
2022/07/13 03:16:32;;;;;;;5.50;3.28;;;;;;;14.79;62.13;100352.59;5071337;28;20024;-27
2022/07/13 03:18:59;;;;;;;5.32;3.83;;;;;;;14.62;63.57;100362.44;5089300;28;20056;-30
2022/07/13 03:21:24;;;;;;;10.70;3.83;;;;;;;14.67;63.70;100362.56;5088876;28;20040;-29
2022/07/13 03:23:50;;;;;;;6.55;3.40;;;;;;;14.45;63.76;100344.38;5089353;28;20035;-29
2022/07/13 03:26:15;;;;;;;7.60;3.83;;;;;;;14.62;63.59;100362.44;5089357;28;20468;-27
2022/07/13 03:28:41;;;;;;;5.53;3.60;;;;;;;14.44;64.49;100369.59;5089209;28;20525;-27
2022/07/13 03:31:06;;;;;;;8.65;3.75;;;;;;;14.07;65.80;100361.78;5088053;28;20115;-28
2022/07/13 03:33:32;;;;;;;7.07;3.83;;;;;;;14.47;65.06;100362.91;5087093;28;20050;-28
2022/07/13 03:35:57;;;;;;;11.35;3.90;;;;;;;14.43;64.15;100372.50;5087417;28;20035;-26
2022/07/13 03:38:23;;;;;;;12.13;4.30;;;;;;;14.29;65.54;100369.25;5088042;28;20024;-31
2022/07/13 03:40:49;;;;;;;9.70;4.60;;;;;;;14.77;63.81;100357.38;5087879;28;20093;-26
2022/07/13 03:43:14;;;;;;;6.78;3.92;;;;;;;14.72;64.03;100362.63;5069814;28;20833;-30
2022/07/13 03:45:42;;;;;;;12.18;4.75;;;;;;;14.62;65.00;100347.13;5069847;28;20059;-28
2022/07/13 03:48:08;;;;;;;10.65;5.25;;;;;;;14.86;64.03;100373.91;5089190;28;20024;-29
2022/07/13 03:50:33;;;;;;;14.98;4.90;;;;;;;14.81;63.86;100369.28;5088544;28;20043;-27
2022/07/13 03:52:58;;;;;;;27.38;17.77;;;;;;;14.65;64.34;100351.25;5070591;28;20024;-30
2022/07/13 03:55:24;;;;;;;17.40;8.00;;;;;;;14.75;64.40;100359.50;5088462;28;20092;-27
2022/07/13 03:57:49;;;;;;;8.30;4.18;;;;;;;14.72;64.19;100354.59;5088913;28;20024;-26
2022/07/13 04:00:15;;;;;;;18.98;10.65;;;;;;;14.77;64.76;100346.63;5088825;28;20157;-27
2022/07/13 04:02:41;;;;;;;27.02;21.23;;;;;;;14.94;64.46;100348.56;5088608;28;20064;-31
2022/07/13 04:05:06;;;;;;;13.73;8.52;;;;;;;15.24;63.13;100359.84;5088492;28;20392;-27
2022/07/13 04:07:32;;;;;;;9.38;7.10;;;;;;;15.10;63.94;100347.78;5088306;28;20067;-27
2022/07/13 04:09:57;;;;;;;7.35;4.63;;;;;;;15.32;63.35;100347.03;5088669;28;20024;-31
2022/07/13 04:12:23;;;;;;;23.58;17.02;;;;;;;15.46;63.58;100364.47;5088444;28;20028;-27
2022/07/13 04:14:49;;;;;;;20.90;15.38;;;;;;;15.36;63.95;100367.81;5088482;28;20024;-27
2022/07/13 04:17:15;;;;;;;17.35;13.18;;;;;;;15.23;65.03;100344.75;5069834;28;20025;-30
2022/07/13 04:19:40;;;;;;;5.82;3.97;;;;;;;15.26;66.50;100357.72;5086365;28;20036;-30
2022/07/13 04:22:05;;;;;;;4.70;3.58;;;;;;;15.50;65.78;100362.94;5088310;28;20155;-28
2022/07/13 04:24:31;;;;;;;7.45;4.85;;;;;;;15.52;66.28;100343.88;5088569;28;20534;-29
2022/07/13 04:26:56;;;;;;;6.75;3.88;;;;;;;15.78;66.55;100353.19;5088427;28;20408;-27
2022/07/13 04:29:22;;;;;;;8.88;3.85;;;;;;;15.73;67.43;100358.47;5087830;28;20031;-26
2022/07/13 04:31:47;;;;;;;7.07;4.05;;;;;;;15.86;67.74;100355.47;5087982;28;20020;-28
2022/07/13 04:34:13;;;;;;;4.65;3.30;;;;;;;16.22;65.86;100369.41;5069148;28;20036;-27
2022/07/13 04:36:41;;;;;;;6.13;3.92;;;;;;;16.32;61.53;100349.88;5087694;28;20562;-30
2022/07/13 04:39:07;;;;;;;7.20;3.78;;;;;;;16.72;60.64;100363.03;5087839;28;20031;-28
2022/07/13 04:41:32;;;;;;;6.30;3.78;;;;;;;16.61;61.21;100366.66;5068981;28;20428;-28
2022/07/13 04:43:58;;;;;;;8.77;4.38;;;;;;;16.83;61.09;100364.78;5088174;28;20052;-28
2022/07/13 04:46:25;;;;;;;6.82;3.72;;;;;;;17.03;60.32;100366.06;5087654;28;20093;-27
2022/07/13 04:48:50;;;;;;;6.30;3.53;;;;;;;17.22;60.26;100361.97;5087561;28;20059;-26
2022/07/13 04:51:16;;;;;;;9.35;3.53;;;;;;;17.40;59.65;100370.72;5088107;28;20060;-30
2022/07/13 04:53:41;;;;;;;10.85;3.70;;;;;;;17.51;59.12;100364.38;5087645;28;20064;-29
2022/07/13 04:56:07;;;;;;;7.60;3.75;;;;;;;17.50;58.77;100370.81;5087436;28;20082;-28
2022/07/13 04:58:32;;;;;;;7.40;3.83;;;;;;;17.63;58.57;100367.69;5069145;28;20111;-27
2022/07/13 05:01:00;;;;;;;7.88;3.70;;;;;;;17.78;58.29;100374.28;5087482;28;20066;-27
2022/07/13 05:03:26;;;;;;;7.15;3.45;;;;;;;17.89;58.25;100375.97;5068683;28;20028;-31
2022/07/13 05:05:52;;;;;;;6.95;3.17;;;;;;;18.10;57.57;100373.41;5068375;28;20039;-27
2022/07/13 05:08:17;;;;;;;13.23;8.90;;;;;;;18.12;56.54;100357.75;5087448;28;20483;-28
2022/07/13 05:10:43;;;;;;;9.32;4.90;;;;;;;18.30;57.14;100370.81;5087372;28;20467;-27
2022/07/13 05:13:08;;;;;;;7.40;4.60;;;;;;;18.39;55.70;100363.84;5087540;28;20024;-27
2022/07/13 05:15:33;;;;;;;5.97;3.13;;;;;;;18.58;55.56;100374.19;5086937;28;20484;-28
2022/07/13 05:17:59;;;;;;;4.18;3.00;;;;;;;18.65;55.74;100377.44;5086981;28;20024;-28
2022/07/13 05:20:24;;;;;;;16.60;5.68;;;;;;;18.55;55.06;100361.19;5069029;28;20571;-27
2022/07/13 05:22:50;;;;;;;6.10;3.67;;;;;;;18.69;55.63;100383.94;5087218;28;20476;-28
2022/07/13 05:25:15;;;;;;;10.75;5.88;;;;;;;18.82;55.53;100378.06;5087183;28;20051;-29
2022/07/13 05:27:41;;;;;;;12.35;6.35;;;;;;;19.03;54.53;100387.03;5087070;28;20024;-28
2022/07/13 05:30:07;;;;;;;13.68;6.78;;;;;;;19.06;55.21;100381.09;5068655;28;20024;-27
2022/07/13 05:32:32;;;;;;;7.68;4.45;;;;;;;19.21;54.33;100379.50;5068525;28;20035;-29
2022/07/13 05:34:58;;;;;;;6.70;3.13;;;;;;;19.48;53.88;100379.25;5087046;28;20032;-29
2022/07/13 05:37:23;;;;;;;4.43;2.97;;;;;;;19.82;53.27;100384.94;5086700;28;20476;-28
2022/07/13 05:39:49;;;;;;;7.82;4.28;;;;;;;20.05;52.33;100383.53;5086874;28;20444;-28
2022/07/13 05:42:14;;;;;;;13.88;6.13;;;;;;;20.16;51.76;100372.69;5086827;28;20512;-27
2022/07/13 05:44:40;;;;;;;8.80;3.42;;;;;;;20.39;51.48;100388.34;5068601;28;20097;-29
2022/07/13 05:47:06;;;;;;;6.70;2.40;;;;;;;20.57;49.78;100377.97;5068341;28;20043;-29
2022/07/13 05:49:31;;;;;;;7.18;2.47;;;;;;;20.50;48.06;100366.63;5086993;28;20049;-33
2022/07/13 05:51:57;;;;;;;2.85;1.90;;;;;;;20.56;49.45;100370.94;5086851;28;20028;-27
2022/07/13 05:54:22;;;;;;;3.72;1.80;;;;;;;20.67;46.98;100353.56;5086746;28;20032;-30
2022/07/13 05:56:48;;;;;;;3.75;2.03;;;;;;;20.93;47.05;100370.50;5086712;28;20116;-30
2022/07/13 05:59:14;;;;;;;3.42;1.70;;;;;;;21.03;45.88;100372.31;5086792;28;20036;-29
2022/07/13 06:01:39;;;;;;;3.22;1.80;;;;;;;21.02;45.71;100357.13;5067961;28;20412;-27
2022/07/13 06:04:05;;;;;;;2.03;1.30;;;;;;;21.03;43.66;100347.94;5068513;28;20112;-27
2022/07/13 06:06:30;;;;;;;2.22;1.40;;;;;;;21.20;45.31;100348.31;5068438;28;20035;-28
2022/07/13 06:08:56;;;;;;;3.60;1.50;;;;;;;21.38;43.54;100357.69;5068482;28;20487;-29
2022/07/13 06:11:21;;;;;;;3.47;1.30;;;;;;;21.61;42.95;100358.06;5086642;28;20530;-28
2022/07/13 06:13:47;;;;;;;4.55;1.80;;;;;;;21.49;42.30;100344.06;5068147;28;20404;-30
2022/07/13 06:16:12;;;;;;;3.40;1.50;;;;;;;21.49;43.30;100353.00;5086557;28;20769;-28
2022/07/13 06:18:38;;;;;;;4.60;1.40;;;;;;;21.78;43.83;100328.59;5071451;28;20122;-30
2022/07/13 06:21:04;;;;;;;3.20;1.30;;;;;;;22.02;42.68;100353.03;5072476;28;20482;-28
2022/07/13 06:23:29;;;;;;;3.60;1.40;;;;;;;21.97;42.13;100331.38;5090168;28;20461;-27
2022/07/13 06:25:55;;;;;;;2.85;1.20;;;;;;;22.22;41.29;100345.75;5090101;28;20030;-28
2022/07/13 06:28:20;;;;;;;3.97;1.40;;;;;;;22.15;41.87;100348.00;5090129;28;20028;-28
2022/07/13 06:30:46;;;;;;;4.38;1.35;;;;;;;22.32;40.75;100340.25;5090017;28;20028;-28
2022/07/13 06:33:11;;;;;;;3.42;1.20;;;;;;;22.45;41.39;100350.41;5071583;28;20028;-27
2022/07/13 06:35:37;;;;;;;2.78;1.20;;;;;;;22.52;40.30;100338.38;5089943;28;20032;-28
2022/07/13 06:38:03;;;;;;;6.07;1.20;;;;;;;22.77;40.63;100350.81;5089896;28;20089;-30
2022/07/13 06:40:28;;;;;;;6.57;1.40;;;;;;;22.92;39.53;100342.41;5090165;28;20039;-27
2022/07/13 06:42:54;;;;;;;2.58;1.30;;;;;;;22.98;39.72;100351.31;5089894;28;20056;-31
2022/07/13 06:45:22;;;;;;;3.72;1.30;;;;;;;22.98;38.56;100345.88;5089699;28;20039;-31
2022/07/13 06:47:48;;;;;;;2.58;1.20;;;;;;;23.16;39.14;100363.31;5071126;28;20034;-32
2022/07/13 06:50:14;;;;;;;2.30;1.20;;;;;;;22.96;38.70;100356.22;5071583;28;20134;-29
2022/07/13 06:52:40;;;;;;;4.72;1.20;;;;;;;23.12;37.99;100352.22;5090061;28;20441;-32
2022/07/13 06:55:07;;;;;;;4.53;1.10;;;;;;;23.34;38.23;100354.31;5071581;28;20031;-29
2022/07/13 06:57:33;;;;;;;2.58;1.10;;;;;;;23.37;36.95;100347.47;5089330;28;20104;-29
2022/07/13 06:59:59;;;;;;;2.97;1.25;;;;;;;23.49;37.95;100345.06;5071304;28;20075;-29
2022/07/13 07:02:24;;;;;;;4.30;1.90;;;;;;;23.65;37.51;100340.19;5071093;28;20036;-32
2022/07/13 07:04:51;;;;;;;6.68;2.80;;;;;;;23.86;36.65;100354.25;5089927;28;20032;-29
2022/07/13 07:07:16;;;;;;;18.00;5.20;;;;;;;23.94;36.52;100339.94;5071856;28;20118;-32
2022/07/13 07:09:42;;;;;;;4.32;1.80;;;;;;;24.03;35.81;100357.19;5089016;28;20385;-28
2022/07/13 07:12:07;;;;;;;2.40;1.20;;;;;;;23.77;36.29;100340.53;5071651;28;20070;-32
2022/07/13 07:14:33;;;;;;;6.68;1.70;;;;;;;24.12;35.47;100351.06;5089713;28;20035;-29
2022/07/13 07:17:01;;;;;;;3.67;1.30;;;;;;;24.18;34.37;100330.75;5089587;28;20021;-34
2022/07/13 07:19:26;;;;;;;3.22;1.10;;;;;;;24.57;35.69;100356.69;5089241;28;20028;-28
2022/07/13 07:21:52;;;;;;;5.28;1.35;;;;;;;24.53;35.85;100348.31;5071236;28;20489;-27
2022/07/13 07:24:17;;;;;;;2.22;1.27;;;;;;;24.70;35.24;100355.03;5070992;28;20059;-34
2022/07/13 07:26:47;;;;;;;2.10;0.95;;;;;;;24.58;34.61;100363.75;5089306;28;20531;-28
2022/07/13 07:29:14;;;;;;;2.78;1.20;;;;;;;24.78;33.79;100357.03;5088459;28;20070;-27
2022/07/13 07:31:39;;;;;;;4.80;1.17;;;;;;;24.73;32.97;100349.00;5070666;28;20104;-27
2022/07/13 07:34:06;;;;;;;3.83;0.90;;;;;;;24.82;34.22;100358.84;5071171;28;20032;-30
2022/07/13 07:36:31;;;;;;;2.03;0.90;;;;;;;24.73;34.45;100341.63;5070889;28;20028;-27
2022/07/13 07:38:57;;;;;;;3.25;1.10;;;;;;;24.91;34.97;100344.47;5089321;28;20028;-28
2022/07/13 07:41:22;;;;;;;3.85;1.15;;;;;;;24.83;33.55;100338.66;5088791;28;20036;-27
2022/07/13 07:43:48;;;;;;;5.57;1.55;;;;;;;24.97;33.96;100367.81;5088905;28;20442;-30
2022/07/13 07:46:14;;;;;;;4.03;1.00;;;;;;;24.80;33.96;100344.72;5070581;28;20385;-28
2022/07/13 07:48:39;;;;;;;3.70;1.00;;;;;;;24.97;32.70;100365.09;5070737;28;20028;-28
2022/07/13 07:51:05;;;;;;;2.53;1.00;;;;;;;25.17;33.67;100342.78;5088926;28;20662;-29
2022/07/13 07:53:31;;;;;;;3.22;1.00;;;;;;;25.31;34.26;100341.94;5070126;28;20487;-28
2022/07/13 07:55:56;;;;;;;1.88;1.10;;;;;;;25.17;33.28;100353.69;5070513;28;20032;-28
2022/07/13 07:58:22;;;;;;;3.42;1.10;;;;;;;25.45;33.93;100348.13;5088399;28;20051;-28
2022/07/13 08:00:47;;;;;;;1.52;1.00;;;;;;;25.60;32.76;100344.19;5088792;28;20770;-27
2022/07/13 08:03:13;;;;;;;5.03;1.30;;;;;;;25.96;33.72;100344.06;5088376;28;20032;-30
2022/07/13 08:05:38;;;;;;;4.22;1.20;;;;;;;26.13;32.35;100356.19;5088459;28;20038;-28
2022/07/13 08:08:04;;;;;;;5.38;1.10;;;;;;;26.06;32.78;100343.78;5088458;28;20092;-29
2022/07/13 08:10:30;;;;;;;3.00;1.02;;;;;;;25.82;30.91;100343.34;5088847;28;20120;-32
2022/07/13 08:12:58;;;;;;;3.35;0.90;;;;;;;25.90;31.52;100336.34;5069917;28;20566;-28
2022/07/13 08:15:24;;;;;;;1.27;0.80;;;;;;;26.02;31.75;100347.47;5069925;28;20097;-30
2022/07/13 08:17:50;;;;;;;2.80;1.00;;;;;;;26.10;31.46;100351.38;5088427;28;20032;-28
2022/07/13 08:20:15;;;;;;;2.28;0.98;;;;;;;26.20;31.15;100351.88;5088310;28;20507;-27
2022/07/13 08:22:41;;;;;;;1.83;0.85;;;;;;;26.01;30.97;100341.22;5088650;28;20028;-30
2022/07/13 08:25:06;;;;;;;1.40;0.90;;;;;;;26.20;30.39;100368.28;5088271;28;20092;-29
2022/07/13 08:27:32;;;;;;;2.92;0.90;;;;;;;26.46;29.63;100362.88;5069107;28;20056;-32
2022/07/13 08:29:59;;;;;;;4.15;0.90;;;;;;;26.62;30.67;100359.72;5069731;28;20093;-28
2022/07/13 08:32:24;;;;;;;1.92;0.77;;;;;;;26.63;30.15;100350.41;5069721;28;20071;-27
2022/07/13 08:40:20;;;;;;;3.97;0.88;;;;;;;26.53;30.23;100348.72;5087690;28;20066;-28
2022/07/13 08:42:46;;;;;;;4.57;1.45;;;;;;;26.64;29.24;100357.47;5087788;28;20523;-31
2022/07/13 08:45:12;;;;;;;2.22;0.93;;;;;;;26.48;29.82;100345.34;5069213;28;20585;-27
2022/07/13 08:47:39;;;;;;;3.42;1.20;;;;;;;26.55;30.11;100351.94;5069067;28;20031;-29
2022/07/13 08:50:06;;;;;;;2.13;1.02;;;;;;;26.94;29.71;100342.03;5069315;28;20195;-27
2022/07/13 08:52:34;;;;;;;2.40;0.68;;;;;;;27.35;29.56;100345.41;5069074;28;20035;-34
2022/07/13 08:55:03;;;;;;;5.03;0.98;;;;;;;27.48;27.74;100349.88;5069195;28;20085;-31
2022/07/13 08:57:29;;;;;;;5.82;0.98;;;;;;;26.90;28.69;100343.00;5087314;28;20024;-30
2022/07/13 08:59:54;;;;;;;2.40;0.68;;;;;;;27.12;26.83;100331.88;5069177;28;20024;-30
2022/07/13 09:02:19;;;;;;;1.60;0.70;;;;;;;27.51;26.98;100338.28;5087813;28;20496;-33
2022/07/13 09:04:46;;;;;;;1.08;0.60;;;;;;;27.51;27.34;100346.50;5087467;28;20059;-32
2022/07/13 09:07:11;;;;;;;1.35;0.73;;;;;;;27.64;27.34;100344.69;5068690;28;20062;-35
2022/07/13 09:09:38;;;;;;;0.93;0.60;;;;;;;27.72;26.92;100337.56;5087270;28;20024;-33
2022/07/13 09:12:13;;;;;;;2.58;0.68;;;;;;;27.64;26.16;100342.78;5068898;28;20032;-31
2022/07/13 09:14:39;;;;;;;0.60;0.50;;;;;;;27.65;26.77;100344.38;5068866;28;20027;-30
2022/07/13 09:17:04;;;;;;;2.35;0.77;;;;;;;28.07;26.44;100351.97;5068588;28;20031;-31
2022/07/13 09:19:39;;;;;;;1.00;0.60;;;;;;;28.27;26.82;100353.16;5086809;28;20030;-31
2022/07/13 09:22:12;;;;;;;1.90;0.80;;;;;;;28.25;25.55;100328.00;5087258;28;20118;-30
2022/07/13 09:24:48;;;;;;;1.55;0.82;;;;;;;28.31;27.60;100348.63;5068645;28;20122;-32
2022/07/13 09:27:15;;;;;;;3.50;0.80;;;;;;;28.38;26.29;100343.44;5068490;28;20032;-30
2022/07/13 09:29:41;;;;;;;1.83;0.90;;;;;;;28.23;26.34;100336.56;5086788;28;20758;-30
2022/07/13 09:32:11;;;;;;;1.92;0.70;;;;;;;28.40;24.59;100346.63;5068423;28;20278;-32
2022/07/13 09:34:53;;;;;;;1.50;0.60;;;;;;;28.62;25.94;100342.00;5068688;28;20024;-32
2022/07/13 09:37:24;;;;;;;2.40;0.75;;;;;;;28.23;26.55;100333.00;5068249;28;20032;-33
2022/07/13 09:40:07;;;;;;;1.73;0.90;;;;;;;28.56;26.41;100341.38;5086805;28;20024;-30
2022/07/13 09:42:37;;;;;;;0.73;0.63;;;;;;;28.30;26.35;100336.06;5068076;28;20055;-32
2022/07/13 09:47:55;;;;;;;6.18;1.10;;;;;;;28.87;24.22;100342.13;5087094;28;20133;-30
2022/07/13 09:50:22;;;;;;;5.75;1.42;;;;;;;28.51;26.27;100305.94;5086717;28;20022;-34
2022/07/13 09:52:49;;;;;;;3.67;1.17;;;;;;;28.43;26.54;100318.53;5086303;28;20059;-32
2022/07/13 09:55:20;;;;;;;4.70;1.30;;;;;;;28.80;26.83;100332.47;5067956;28;20039;-30
2022/07/13 09:57:52;;;;;;;3.60;1.08;;;;;;;29.28;25.58;100313.03;5068292;28;20124;-35
2022/07/13 10:00:18;;;;;;;3.58;0.98;;;;;;;29.49;24.97;100311.03;5086699;28;20028;-30
2022/07/13 10:02:48;;;;;;;3.53;0.80;;;;;;;29.19;25.27;100297.44;5086346;28;20032;-32
2022/07/13 10:05:18;;;;;;;1.17;0.57;;;;;;;29.21;26.16;100316.31;5068105;28;20031;-34
2022/07/13 10:07:46;;;;;;;1.10;0.70;;;;;;;28.92;25.00;100307.03;5067597;28;20221;-33
2022/07/13 10:10:13;;;;;;;4.05;0.93;;;;;;;29.27;25.68;100305.94;5068123;28;20109;-32
2022/07/13 10:12:39;;;;;;;2.58;1.00;;;;;;;29.40;25.21;100302.88;5086348;28;20034;-30
2022/07/13 10:15:06;;;;;;;2.40;0.80;;;;;;;29.38;24.24;100291.44;5086627;28;20036;-31
2022/07/13 10:17:33;;;;;;;5.38;1.70;;;;;;;29.34;24.13;100296.00;5086137;28;20039;-36
2022/07/13 10:20:07;;;;;;;5.07;0.80;;;;;;;29.40;23.04;100291.06;5068023;28;20029;-32
2022/07/13 10:22:37;;;;;;;2.85;1.00;;;;;;;29.93;23.92;100283.81;5068319;28;20108;-33
2022/07/13 10:25:03;;;;;;;3.05;0.90;;;;;;;29.68;22.50;100271.19;5068168;28;20423;-29
2022/07/13 10:27:34;;;;;;;1.85;0.90;;;;;;;29.75;25.38;100260.44;5067918;28;20597;-32
2022/07/13 10:30:08;;;;;;;2.67;1.00;;;;;;;29.85;23.50;100276.47;5067961;28;20070;-29
2022/07/13 10:32:37;;;;;;;1.92;0.77;;;;;;;29.79;24.38;100278.69;5067801;28;20028;-31
2022/07/13 10:35:11;;;;;;;3.10;0.80;;;;;;;29.33;23.33;100260.63;5068029;28;20535;-30
2022/07/13 10:37:58;;;;;;;1.80;0.65;;;;;;;30.03;23.04;100260.56;5086082;28;20031;-30
2022/07/13 10:40:34;;;;;;;3.55;0.85;;;;;;;30.05;23.32;100256.31;5067965;28;20034;-31
2022/07/13 10:43:01;;;;;;;3.65;0.90;;;;;;;29.69;22.60;100261.78;5086240;28;20051;-31
2022/07/13 10:45:34;;;;;;;1.83;0.67;;;;;;;28.97;23.44;100265.66;5085868;28;20535;-27
2022/07/13 10:48:06;;;;;;;1.88;0.70;;;;;;;29.56;23.02;100256.28;5067911;28;20039;-28
2022/07/13 10:50:44;;;;;;;2.38;0.73;;;;;;;30.10;21.98;100259.97;5086148;28;20036;-28
2022/07/13 10:53:10;;;;;;;0.88;0.70;;;;;;;29.91;22.91;100266.84;5067710;28;20865;-31
2022/07/13 10:55:36;;;;;;;2.65;0.85;;;;;;;29.43;21.96;100243.69;5067554;28;20138;-31
2022/07/13 10:58:29;;;;;;;1.42;0.60;;;;;;;29.16;23.45;100245.94;5067666;28;20097;-29
2022/07/13 11:00:55;;;;;;;1.90;0.70;;;;;;;29.88;22.78;100253.03;5086359;28;20523;-29
2022/07/13 11:03:30;;;;;;;2.28;0.70;;;;;;;30.29;23.34;100232.66;5067482;28;20028;-30
2022/07/13 11:06:12;;;;;;;1.33;0.80;;;;;;;30.31;23.02;100227.63;5070933;28;20032;-29
2022/07/13 11:08:39;;;;;;;0.68;0.60;;;;;;;30.88;23.21;100245.00;5071514;28;20507;-31
2022/07/13 11:11:13;;;;;;;2.78;0.70;;;;;;;29.68;22.74;100233.50;5089984;28;20039;-29
2022/07/13 11:13:39;;;;;;;2.60;0.50;;;;;;;28.76;22.33;100227.25;5071089;28;20189;-31
2022/07/13 11:16:08;;;;;;;5.18;0.80;;;;;;;28.69;23.15;100234.44;5071306;28;20028;-29
2022/07/13 11:18:35;;;;;;;3.35;0.70;;;;;;;29.31;23.53;100235.44;5070994;28;20028;-32
2022/07/13 11:21:16;;;;;;;;;;;;;;;29.82;22.18;100235.94;5071867;28;20092;-29
2022/07/13 11:26:51;;;;;;;2.83;0.77;;;;;;;30.16;21.54;100215.41;5089619;28;20538;-30
2022/07/13 11:29:35;;;;;;;2.13;0.90;;;;;;;30.60;21.90;100236.72;5071219;28;20028;-27
2022/07/13 11:32:03;;;;;;;1.20;0.70;;;;;;;30.93;21.82;100230.94;5071147;28;20032;-30
2022/07/13 11:34:29;;;;;;;0.82;0.80;;;;;;;30.91;21.25;100226.97;5070954;28;20028;-29